Time;durP1;ratioP1;P1;durP2;ratioP2;P2;SDS_P1;SDS_P2;PMS_P1;PMS_P2;Temp;Humidity;BMP_temperature;BMP_pressure;BME280_temperature;BME280_humidity;BME280_pressure;Samples;Min_cycle;Max_cycle;Signal;HPM_P1;HPM_P2
2024/03/07 00:01:47;;;;;;;10.30;7.10;;;;;;;0.69;75.77;101400.77;108038;1255;73388;-66
2024/03/07 00:04:15;;;;;;;10.00;6.70;;;;;;;0.69;75.09;101398.64;107984;1256;71125;-64
2024/03/07 00:06:43;;;;;;;10.60;7.00;;;;;;;0.69;74.48;101395.52;108007;1256;72880;-64
2024/03/07 00:09:11;;;;;;;11.70;6.70;;;;;;;0.69;74.30;101394.10;107992;1256;61100;-68
2024/03/07 00:11:39;;;;;;;11.60;6.70;;;;;;;0.71;74.23;101393.08;108106;1257;61220;-67
2024/03/07 00:14:07;;;;;;;10.20;6.60;;;;;;;0.72;74.16;101389.12;108058;1255;74602;-66
2024/03/07 00:16:35;;;;;;;9.60;6.30;;;;;;;0.74;73.91;101390.70;107979;1257;72825;-67
2024/03/07 00:19:03;;;;;;;10.90;6.90;;;;;;;0.74;73.60;101385.73;107887;1257;72693;-67
2024/03/07 00:21:31;;;;;;;11.40;6.80;;;;;;;0.72;72.96;101387.67;108052;1256;59854;-66
2024/03/07 00:23:59;;;;;;;10.80;7.30;;;;;;;0.70;72.86;101384.20;107990;1256;60974;-65
2024/03/07 00:26:27;;;;;;;11.60;6.80;;;;;;;0.68;72.27;101391.60;108017;1256;74599;-65
2024/03/07 00:28:55;;;;;;;12.10;7.50;;;;;;;0.67;72.35;101386.82;107943;1255;73045;-64
2024/03/07 00:31:23;;;;;;;11.20;6.60;;;;;;;0.66;72.46;101387.28;107944;1256;71080;-66
2024/03/07 00:33:51;;;;;;;10.70;7.30;;;;;;;0.67;72.34;101386.32;107927;1256;60583;-66
2024/03/07 00:36:36;;;;;;;10.50;6.50;;;;;;;0.68;72.31;101384.02;107972;1257;61078;-66
2024/03/07 00:39:04;;;;;;;10.30;6.80;;;;;;;0.70;72.10;101382.47;107925;1257;74735;-67
2024/03/07 00:41:32;;;;;;;11.20;6.30;;;;;;;0.71;72.03;101381.10;107992;1256;71708;-66
2024/03/07 00:43:59;;;;;;;10.00;6.50;;;;;;;0.73;71.51;101375.88;107870;1257;71433;-64
2024/03/07 00:46:27;;;;;;;10.10;6.70;;;;;;;0.70;70.95;101382.59;108078;1255;61238;-66
2024/03/07 00:48:55;;;;;;;11.90;7.00;;;;;;;0.68;70.70;101378.33;108169;1255;61029;-66
2024/03/07 00:51:23;;;;;;;10.10;7.10;;;;;;;0.67;70.35;101377.11;108151;1256;73470;-65
2024/03/07 00:53:50;;;;;;;10.50;6.10;;;;;;;0.65;70.08;101376.73;107909;1256;72742;-65
2024/03/07 00:56:18;;;;;;;8.60;6.00;;;;;;;0.64;69.58;101376.23;107894;1256;70402;-67
2024/03/07 00:58:48;;;;;;;10.00;6.50;;;;;;;0.65;69.45;101373.36;108011;1255;61287;-66
2024/03/07 01:01:18;;;;;;;10.20;6.50;;;;;;;0.66;69.47;101378.31;108014;1255;61225;-66
2024/03/07 01:03:46;;;;;;;9.40;6.00;;;;;;;0.67;69.23;101375.13;108124;1255;73620;-66
2024/03/07 01:06:14;;;;;;;7.70;5.30;;;;;;;0.65;68.82;101378.23;108019;1257;71131;-65
2024/03/07 01:08:42;;;;;;;10.30;6.10;;;;;;;0.64;68.64;101377.52;107943;1256;72464;-66
2024/03/07 01:11:10;;;;;;;10.00;5.90;;;;;;;0.62;68.71;101377.02;108088;1255;61128;-65
2024/03/07 01:13:39;;;;;;;10.80;6.90;;;;;;;0.61;68.96;101378.73;108263;1255;61057;-66
2024/03/07 01:16:07;;;;;;;10.60;6.80;;;;;;;0.60;69.39;101379.52;108172;1256;74598;-65
2024/03/07 01:18:34;;;;;;;9.70;5.90;;;;;;;0.60;69.65;101378.19;108092;1257;72004;-65
2024/03/07 01:21:03;;;;;;;9.10;5.90;;;;;;;0.59;69.59;101377.71;108100;1255;72475;-65
2024/03/07 01:23:31;;;;;;;9.20;6.30;;;;;;;0.60;69.38;101376.23;107959;1256;61259;-65
2024/03/07 01:25:59;;;;;;;10.40;6.20;;;;;;;0.59;69.29;101373.73;107963;1257;61208;-66
2024/03/07 01:28:30;;;;;;;9.80;6.10;;;;;;;0.60;69.34;101373.24;108016;1256;74595;-67
2024/03/07 01:31:00;;;;;;;8.80;6.00;;;;;;;0.61;69.19;101377.35;107930;1257;71580;-66
2024/03/07 01:33:28;;;;;;;11.00;6.60;;;;;;;0.62;69.16;101376.88;107892;1260;71392;-65
2024/03/07 01:35:56;;;;;;;9.70;6.30;;;;;;;0.60;68.42;101372.39;107957;1256;59298;-66
2024/03/07 01:38:25;;;;;;;9.00;5.90;;;;;;;0.56;68.05;101374.38;107961;1255;61084;-66
2024/03/07 01:40:54;;;;;;;10.00;6.30;;;;;;;0.53;68.00;101372.59;107942;1255;74666;-66
2024/03/07 01:43:22;;;;;;;8.80;5.70;;;;;;;0.51;68.08;101373.67;108009;1257;71293;-65
2024/03/07 01:45:50;;;;;;;8.90;5.70;;;;;;;0.50;68.11;101372.56;108042;1256;71135;-65
2024/03/07 01:48:26;;;;;;;8.90;5.80;;;;;;;0.53;68.07;101376.88;107956;1257;61343;-66
2024/03/07 01:50:58;;;;;;;8.20;5.40;;;;;;;0.53;67.87;101376.95;108030;1256;61139;-65
2024/03/07 01:53:30;;;;;;;9.30;6.50;;;;;;;0.53;67.85;101378.70;108169;1255;74620;-66
2024/03/07 01:55:59;;;;;;;8.90;6.20;;;;;;;0.55;67.70;101378.88;108023;1256;71603;-66
2024/03/07 01:58:26;;;;;;;8.20;5.80;;;;;;;0.56;67.96;101374.41;107966;1256;70946;-66
2024/03/07 02:00:54;;;;;;;8.50;5.80;;;;;;;0.56;67.80;101375.43;107862;1256;61310;-65
2024/03/07 02:03:22;;;;;;;8.90;5.60;;;;;;;0.58;67.86;101373.31;108157;1255;61275;-65
2024/03/07 02:05:50;;;;;;;8.50;5.50;;;;;;;0.58;67.86;101376.95;108021;1257;74713;-66
2024/03/07 02:08:19;;;;;;;10.80;6.00;;;;;;;0.58;67.70;101377.15;108150;1257;71251;-66
2024/03/07 02:10:48;;;;;;;9.40;6.60;;;;;;;0.58;67.44;101379.21;107976;1255;72658;-65
2024/03/07 02:13:17;;;;;;;9.00;5.90;;;;;;;0.58;67.37;101382.17;107952;1256;61105;-66
2024/03/07 02:15:45;;;;;;;10.60;6.60;;;;;;;0.59;67.27;101378.73;107938;1255;61212;-65
2024/03/07 02:18:13;;;;;;;8.90;6.00;;;;;;;0.59;67.43;101378.38;108053;1257;74723;-66
2024/03/07 02:20:45;;;;;;;8.90;5.60;;;;;;;0.62;67.69;101380.52;108069;1257;71497;-66
2024/03/07 02:23:14;;;;;;;9.70;6.10;;;;;;;0.65;67.50;101380.04;108102;1256;71450;-65
2024/03/07 02:25:42;;;;;;;8.90;6.00;;;;;;;0.65;67.68;101380.73;108203;1256;61110;-66
2024/03/07 02:28:10;;;;;;;9.40;6.60;;;;;;;0.66;67.82;101380.98;108110;1257;61122;-65
2024/03/07 02:30:37;;;;;;;7.90;5.80;;;;;;;0.66;68.09;101380.27;107944;1256;74742;-65
2024/03/07 02:33:09;;;;;;;10.60;6.20;;;;;;;0.66;68.07;101382.19;107963;1257;71674;-66
2024/03/07 02:35:38;;;;;;;8.70;6.20;;;;;;;0.64;67.91;101382.02;107972;1257;72715;-66
2024/03/07 02:38:05;;;;;;;9.20;6.40;;;;;;;0.64;68.07;101381.53;108005;1257;59765;-65
2024/03/07 02:40:33;;;;;;;10.00;6.50;;;;;;;0.64;68.04;101381.56;108064;1257;61135;-66
2024/03/07 02:43:04;;;;;;;10.10;6.80;;;;;;;0.64;68.03;101379.63;107969;1258;73507;-67
2024/03/07 02:45:33;;;;;;;9.30;6.60;;;;;;;0.62;68.07;101378.70;108114;1255;71431;-65
2024/03/07 02:48:00;;;;;;;10.80;6.50;;;;;;;0.62;68.06;101375.06;107939;1257;71382;-65
2024/03/07 02:50:28;;;;;;;8.60;5.70;;;;;;;0.64;68.58;101375.05;108239;1256;60936;-66
2024/03/07 02:52:56;;;;;;;9.70;6.40;;;;;;;0.65;68.59;101376.48;107997;1257;61119;-66
2024/03/07 02:55:24;;;;;;;9.50;6.00;;;;;;;0.64;68.79;101371.83;108017;1256;73812;-66
2024/03/07 02:57:52;;;;;;;10.50;6.20;;;;;;;0.64;69.01;101371.70;107920;1256;71584;-66
2024/03/07 03:00:20;;;;;;;10.10;6.90;;;;;;;0.65;69.34;101369.70;108186;1257;73155;-67
2024/03/07 03:02:48;;;;;;;10.40;6.30;;;;;;;0.67;69.57;101374.23;108023;1256;61324;-66
2024/03/07 03:05:18;;;;;;;10.30;6.80;;;;;;;0.67;69.96;101374.52;108170;1256;61118;-66
2024/03/07 03:07:52;;;;;;;10.40;6.60;;;;;;;0.67;70.05;101369.45;107950;1255;73366;-65
2024/03/07 03:10:25;;;;;;;9.70;6.60;;;;;;;0.66;70.28;101368.33;107931;1257;72766;-64
2024/03/07 03:12:57;;;;;;;10.40;6.80;;;;;;;0.67;70.26;101365.45;108038;1256;72463;-65
2024/03/07 03:15:25;;;;;;;10.80;7.30;;;;;;;0.65;70.28;101365.79;107870;1257;61395;-64
2024/03/07 03:17:53;;;;;;;10.10;6.80;;;;;;;0.63;70.22;101367.15;108043;1256;61233;-65
2024/03/07 03:20:24;;;;;;;11.30;7.50;;;;;;;0.61;70.17;101368.89;107978;1259;74753;-66
2024/03/07 03:22:53;;;;;;;10.20;7.30;;;;;;;0.59;70.39;101368.61;107871;1257;72756;-66
2024/03/07 03:25:41;;;;;;;11.60;7.20;;;;;;;0.57;70.61;101370.89;107815;1257;72685;-66
2024/03/07 03:28:09;;;;;;;10.40;6.90;;;;;;;0.53;70.55;101372.77;108009;1256;61243;-65
2024/03/07 03:30:38;;;;;;;11.40;7.30;;;;;;;0.52;70.61;101373.20;108018;1256;61795;-66
2024/03/07 03:33:06;;;;;;;13.20;7.50;;;;;;;0.53;70.79;101371.78;108078;1257;73492;-65
2024/03/07 03:35:35;;;;;;;11.80;7.90;;;;;;;0.55;71.03;101378.06;108026;1257;71494;-66
2024/03/07 03:38:03;;;;;;;11.90;8.00;;;;;;;0.53;71.27;101376.79;108090;1257;71390;-66
2024/03/07 03:40:31;;;;;;;10.40;7.10;;;;;;;0.52;71.28;101378.57;107972;1256;59493;-66
2024/03/07 03:42:59;;;;;;;11.50;7.30;;;;;;;0.48;71.11;101381.36;108012;1256;61180;-65
2024/03/07 03:45:27;;;;;;;10.80;7.10;;;;;;;0.46;71.31;101378.42;108019;1255;74737;-65
2024/03/07 03:47:55;;;;;;;11.70;7.70;;;;;;;0.46;71.55;101383.77;108215;1255;71944;-65
2024/03/07 03:50:23;;;;;;;10.50;7.20;;;;;;;0.44;71.48;101385.81;108022;1256;71418;-65
2024/03/07 03:52:51;;;;;;;10.60;7.20;;;;;;;0.45;71.80;101388.77;107947;1255;61096;-65
2024/03/07 03:55:20;;;;;;;9.70;7.00;;;;;;;0.45;71.99;101386.08;108027;1256;61122;-64
2024/03/07 03:57:48;;;;;;;9.30;6.70;;;;;;;0.46;71.98;101390.51;107976;1257;73389;-65
2024/03/07 04:00:18;;;;;;;9.90;6.80;;;;;;;0.50;72.17;101387.02;108042;1257;71910;-66
2024/03/07 04:02:47;;;;;;;10.20;7.10;;;;;;;0.49;72.37;101388.83;107971;1256;70185;-65
2024/03/07 04:05:17;;;;;;;10.10;7.00;;;;;;;0.49;72.36;101393.38;108025;1256;61019;-65
2024/03/07 04:07:46;;;;;;;11.10;7.60;;;;;;;0.49;72.52;101393.91;107997;1255;61089;-65
2024/03/07 04:10:15;;;;;;;10.50;7.00;;;;;;;0.49;72.67;101396.37;107993;1257;74640;-65
2024/03/07 04:12:43;;;;;;;11.20;7.10;;;;;;;0.49;72.54;101393.40;108069;1256;72743;-66
2024/03/07 04:15:12;;;;;;;9.70;6.90;;;;;;;0.47;72.34;101392.86;107994;1256;72687;-64
2024/03/07 04:17:39;;;;;;;9.90;6.50;;;;;;;0.44;72.24;101393.41;108021;1256;60992;-65
2024/03/07 04:20:10;;;;;;;8.80;6.30;;;;;;;0.41;72.12;101394.97;108071;1255;61764;-66
2024/03/07 04:22:41;;;;;;;9.50;7.10;;;;;;;0.40;71.90;101396.67;107968;1257;74630;-65
2024/03/07 04:25:12;;;;;;;9.70;7.00;;;;;;;0.39;72.07;101400.13;108204;1257;71599;-67
2024/03/07 04:27:40;;;;;;;9.60;6.50;;;;;;;0.39;72.24;101401.11;107916;1257;71494;-65
2024/03/07 04:30:11;;;;;;;9.20;6.60;;;;;;;0.39;71.69;101399.70;108087;1256;61160;-66
2024/03/07 04:32:39;;;;;;;9.50;6.70;;;;;;;0.40;71.21;101398.81;108145;1256;61125;-65
2024/03/07 04:35:08;;;;;;;10.90;7.20;;;;;;;0.37;70.97;101401.69;107958;1256;74575;-66
2024/03/07 04:37:40;;;;;;;9.30;6.20;;;;;;;0.36;70.87;101402.02;107967;1257;71614;-66
2024/03/07 04:40:15;;;;;;;8.90;6.20;;;;;;;0.35;71.06;101402.42;108080;1256;71392;-67
2024/03/07 04:42:52;;;;;;;9.90;6.50;;;;;;;0.36;71.27;101401.66;108013;1256;61244;-65
2024/03/07 04:45:23;;;;;;;10.70;6.20;;;;;;;0.36;71.12;101400.21;108012;1256;62359;-65
2024/03/07 04:47:51;;;;;;;10.30;6.60;;;;;;;0.36;70.93;101401.13;108018;1255;74701;-65
2024/03/07 04:50:19;;;;;;;10.00;6.20;;;;;;;0.37;70.74;101404.15;108032;1257;72766;-65
2024/03/07 04:52:51;;;;;;;8.30;5.70;;;;;;;0.38;70.47;101406.54;107985;1257;71398;-65
2024/03/07 04:55:20;;;;;;;9.80;6.80;;;;;;;0.39;70.28;101409.59;108189;1255;61119;-65
2024/03/07 04:57:51;;;;;;;9.20;6.20;;;;;;;0.40;70.20;101410.84;107970;1257;61115;-66
2024/03/07 05:00:24;;;;;;;9.30;6.30;;;;;;;0.42;69.97;101414.08;108002;1256;73399;-65
2024/03/07 05:02:53;;;;;;;9.20;5.80;;;;;;;0.43;69.79;101411.88;107882;1257;72497;-65
2024/03/07 05:05:26;;;;;;;9.30;6.30;;;;;;;0.45;69.55;101415.42;107867;1256;72698;-65
2024/03/07 05:07:55;;;;;;;9.70;6.10;;;;;;;0.46;69.28;101415.11;108043;1257;61232;-66
2024/03/07 05:10:24;;;;;;;8.70;6.20;;;;;;;0.46;69.11;101415.22;107944;1257;61090;-66
2024/03/07 05:12:52;;;;;;;9.30;6.40;;;;;;;0.47;68.82;101417.65;108007;1255;74739;-67
2024/03/07 05:15:25;;;;;;;8.60;6.40;;;;;;;0.46;68.57;101422.27;107863;1256;70561;-66
2024/03/07 05:17:55;;;;;;;9.00;6.00;;;;;;;0.46;68.47;101420.80;108038;1257;71393;-65
2024/03/07 05:20:28;;;;;;;9.60;6.30;;;;;;;0.45;68.17;101424.80;108083;1256;61260;-65
2024/03/07 05:22:58;;;;;;;11.00;6.80;;;;;;;0.40;68.20;101424.63;107923;1256;61132;-66
2024/03/07 05:25:38;;;;;;;10.00;7.00;;;;;;;0.39;68.20;101425.87;108009;1256;73466;-65
2024/03/07 05:28:07;;;;;;;8.80;6.10;;;;;;;0.38;68.11;101427.65;107941;1257;73797;-66
2024/03/07 05:30:40;;;;;;;;;;;;;;;0.40;67.79;101430.67;107986;1255;72589;-66
2024/03/07 05:33:11;;;;;;;9.00;6.20;;;;;;;0.42;67.93;101430.11;107953;1257;61138;-64
2024/03/07 05:35:50;;;;;;;10.10;6.60;;;;;;;0.41;67.83;101427.52;108009;1257;61308;-65
2024/03/07 05:38:24;;;;;;;9.50;6.80;;;;;;;0.44;67.74;101431.02;108092;1254;74731;-65
2024/03/07 05:40:56;;;;;;;9.40;6.40;;;;;;;0.46;68.00;101434.01;108026;1257;72862;-66
2024/03/07 05:43:32;;;;;;;9.90;6.90;;;;;;;0.49;68.06;101436.00;108062;1256;72786;-66
2024/03/07 05:46:14;;;;;;;10.20;6.40;;;;;;;0.50;67.95;101433.77;107865;1257;61501;-65
2024/03/07 05:48:46;;;;;;;9.40;6.30;;;;;;;0.50;67.81;101438.14;107858;1257;61266;-66
2024/03/07 05:51:18;;;;;;;9.60;6.60;;;;;;;0.56;67.82;101439.44;107810;1257;77493;-65
2024/03/07 05:53:51;;;;;;;9.50;6.50;;;;;;;0.57;67.41;101439.10;107998;1257;72802;-66
2024/03/07 05:56:20;;;;;;;9.00;6.70;;;;;;;0.52;67.84;101438.09;107890;1257;73006;-65
2024/03/07 05:58:51;;;;;;;10.80;7.20;;;;;;;0.55;67.90;101439.49;107953;1257;61103;-65
2024/03/07 06:01:25;;;;;;;10.40;6.70;;;;;;;0.58;68.17;101439.70;107980;1257;61313;-65
2024/03/07 06:04:01;;;;;;;10.80;7.10;;;;;;;0.55;68.04;101439.30;107806;1256;76789;-66
2024/03/07 06:06:32;;;;;;;13.70;7.50;;;;;;;0.58;68.22;101444.75;107946;1257;71490;-66
2024/03/07 06:09:21;;;;;;;11.40;7.00;;;;;;;0.53;68.29;101441.14;107900;1257;71216;-65
2024/03/07 06:12:08;;;;;;;12.00;7.40;;;;;;;0.51;68.64;101447.09;107893;1256;61457;-66
2024/03/07 06:15:00;;;;;;;10.90;7.30;;;;;;;0.52;68.69;101446.98;108036;1257;60209;-66
2024/03/07 06:17:35;;;;;;;10.20;6.50;;;;;;;0.56;68.74;101452.78;108005;1257;76373;-65
2024/03/07 06:20:24;;;;;;;10.70;6.50;;;;;;;0.59;68.44;101453.63;108003;1257;72715;-70
2024/03/07 06:22:53;;;;;;;10.10;7.00;;;;;;;0.60;68.09;101452.56;107983;1257;71722;-66
2024/03/07 06:25:34;;;;;;;9.10;6.00;;;;;;;0.61;67.89;101452.09;108031;1257;61349;-66
2024/03/07 06:28:09;;;;;;;12.50;7.30;;;;;;;0.61;67.80;101455.64;108052;1257;61087;-65
2024/03/07 06:30:41;;;;;;;10.00;6.70;;;;;;;0.56;67.64;101455.17;107931;1257;73610;-67
2024/03/07 06:33:10;;;;;;;10.20;7.30;;;;;;;0.55;67.77;101455.14;107931;1257;72809;-66
2024/03/07 06:35:38;;;;;;;8.90;6.40;;;;;;;0.61;67.79;101454.47;107938;1257;73077;-66
2024/03/07 06:38:08;;;;;;;9.40;6.50;;;;;;;0.63;67.46;101455.77;107978;1256;61193;-65
2024/03/07 06:40:36;;;;;;;8.80;6.60;;;;;;;0.69;67.06;101453.92;107991;1257;61350;-66
2024/03/07 06:43:06;;;;;;;9.50;6.50;;;;;;;0.71;66.61;101457.59;107988;1257;74669;-65
2024/03/07 06:45:35;;;;;;;10.30;6.70;;;;;;;0.71;66.26;101456.64;108099;1257;72916;-66
2024/03/07 06:48:09;;;;;;;10.00;6.80;;;;;;;0.74;65.92;101457.77;107957;1259;71364;-66
2024/03/07 06:50:38;;;;;;;10.20;6.60;;;;;;;0.77;65.79;101458.52;107984;1257;61141;-66
2024/03/07 06:53:06;;;;;;;10.50;6.40;;;;;;;0.75;65.31;101459.88;107956;1256;61106;-66
2024/03/07 06:55:36;;;;;;;11.60;7.10;;;;;;;0.72;65.12;101461.43;108021;1257;73615;-67
2024/03/07 06:58:04;;;;;;;8.80;6.40;;;;;;;0.71;65.18;101462.61;108025;1257;73674;-66
2024/03/07 07:00:35;;;;;;;9.30;6.50;;;;;;;0.74;65.09;101466.69;108023;1257;71163;-65
2024/03/07 07:03:05;;;;;;;8.50;6.10;;;;;;;0.76;65.03;101469.96;107938;1257;61100;-67
2024/03/07 07:05:34;;;;;;;9.80;6.40;;;;;;;0.78;65.19;101471.52;107911;1255;61225;-66
2024/03/07 07:08:04;;;;;;;8.40;5.90;;;;;;;0.79;65.05;101469.83;108119;1257;74933;-65
2024/03/07 07:10:35;;;;;;;9.70;6.70;;;;;;;0.82;65.21;101471.18;108124;1257;71117;-67
2024/03/07 07:13:04;;;;;;;10.60;7.20;;;;;;;0.89;65.30;101475.70;107940;1257;74983;-65
2024/03/07 07:15:36;;;;;;;9.90;6.60;;;;;;;0.93;64.98;101479.27;107922;1257;61114;-65
2024/03/07 07:18:07;;;;;;;8.70;6.20;;;;;;;0.97;65.17;101477.15;107924;1256;61298;-65
2024/03/07 07:20:35;;;;;;;8.80;6.40;;;;;;;1.01;64.83;101476.70;108048;1257;73523;-65
2024/03/07 07:23:03;;;;;;;8.60;6.60;;;;;;;1.01;64.53;101478.74;108087;1256;70346;-65
2024/03/07 07:25:31;;;;;;;8.30;6.30;;;;;;;0.99;64.07;101482.20;108053;1255;71473;-66
2024/03/07 07:27:59;;;;;;;8.50;6.10;;;;;;;0.96;63.82;101483.50;108003;1257;61288;-66
2024/03/07 07:30:27;;;;;;;9.00;5.90;;;;;;;0.97;63.74;101484.77;108020;1255;60269;-65
2024/03/07 07:32:55;;;;;;;7.50;5.80;;;;;;;0.98;63.12;101482.30;107997;1257;74456;-64
2024/03/07 07:35:23;;;;;;;8.60;6.00;;;;;;;0.98;63.00;101483.27;108056;1257;75604;-66
2024/03/07 07:37:53;;;;;;;8.70;6.30;;;;;;;1.02;62.85;101486.86;107973;1257;74975;-65
2024/03/07 07:40:23;;;;;;;9.30;7.20;;;;;;;1.06;63.17;101483.83;107859;1257;61362;-65
2024/03/07 07:42:52;;;;;;;10.30;6.40;;;;;;;1.08;63.60;101486.54;107902;1256;60436;-65
2024/03/07 07:45:21;;;;;;;10.20;6.90;;;;;;;1.06;63.55;101484.27;108064;1257;74442;-66
2024/03/07 07:47:51;;;;;;;9.20;6.40;;;;;;;1.07;63.59;101486.15;107942;1257;72567;-66
2024/03/07 07:50:20;;;;;;;9.10;6.20;;;;;;;1.09;63.66;101485.19;108245;1257;72674;-67
2024/03/07 07:52:57;;;;;;;11.70;6.50;;;;;;;1.06;63.22;101488.32;108030;1257;61263;-65
2024/03/07 07:55:27;;;;;;;10.00;6.80;;;;;;;1.04;63.18;101487.34;108040;1255;60405;-66
2024/03/07 07:57:56;;;;;;;8.80;6.80;;;;;;;1.03;63.55;101490.08;108030;1257;75045;-66
2024/03/07 08:00:28;;;;;;;10.80;7.30;;;;;;;1.04;63.77;101490.20;108026;1256;72116;-66
2024/03/07 08:02:59;;;;;;;10.80;7.60;;;;;;;1.05;63.82;101493.58;107943;1257;72151;-64
2024/03/07 08:05:28;;;;;;;9.80;6.60;;;;;;;1.04;63.80;101491.42;107917;1257;61886;-65
2024/03/07 08:07:57;;;;;;;11.50;7.80;;;;;;;1.02;63.64;101490.58;108102;1257;61093;-65
2024/03/07 08:10:28;;;;;;;10.60;6.90;;;;;;;1.01;63.84;101496.52;108026;1260;75072;-66
2024/03/07 08:12:57;;;;;;;9.20;6.30;;;;;;;1.01;63.82;101497.23;108027;1257;71953;-65
2024/03/07 08:15:26;;;;;;;8.50;6.50;;;;;;;1.04;63.60;101499.80;108153;1256;72857;-65
2024/03/07 08:17:55;;;;;;;9.10;6.60;;;;;;;1.11;63.68;101498.86;108032;1256;61113;-65
2024/03/07 08:20:23;;;;;;;8.90;6.10;;;;;;;1.18;63.28;101497.67;108410;1257;61257;-65
2024/03/07 08:22:53;;;;;;;8.70;5.80;;;;;;;1.26;63.13;101495.79;108075;1255;74827;-66
2024/03/07 08:25:23;;;;;;;7.60;5.40;;;;;;;1.36;62.92;101494.13;108134;1257;74917;-66
2024/03/07 08:27:52;;;;;;;8.20;6.10;;;;;;;1.46;62.07;101494.56;107947;1257;73053;-65
2024/03/07 08:30:20;;;;;;;10.20;6.50;;;;;;;1.51;61.19;101489.07;108053;1255;61126;-66
2024/03/07 08:32:50;;;;;;;8.30;6.00;;;;;;;1.48;60.60;101492.12;107849;1256;61102;-65
2024/03/07 08:35:18;;;;;;;9.90;6.60;;;;;;;1.43;60.71;101494.55;108099;1257;74531;-65
2024/03/07 08:37:53;;;;;;;10.10;5.50;;;;;;;1.43;60.73;101495.15;108097;1257;75005;-64
2024/03/07 08:40:22;;;;;;;10.00;6.70;;;;;;;1.45;60.80;101495.77;108009;1257;73638;-65
2024/03/07 08:42:56;;;;;;;8.50;6.30;;;;;;;1.47;60.84;101494.30;108063;1257;61482;-64
2024/03/07 08:45:25;;;;;;;9.50;6.70;;;;;;;1.53;60.74;101501.63;108150;1256;61228;-65
2024/03/07 08:47:54;;;;;;;11.30;6.40;;;;;;;1.59;60.73;101502.21;108067;1257;74822;-65
2024/03/07 08:50:23;;;;;;;9.10;6.10;;;;;;;1.62;60.41;101504.71;107983;1257;74836;-64
2024/03/07 08:52:51;;;;;;;9.00;6.10;;;;;;;1.61;60.01;101504.61;107987;1257;71796;-65
2024/03/07 08:55:20;;;;;;;8.50;6.10;;;;;;;1.60;60.00;101499.84;108223;1256;61109;-65
2024/03/07 08:57:49;;;;;;;8.70;6.10;;;;;;;1.59;59.90;101498.70;108051;1257;61231;-64
2024/03/07 09:00:24;;;;;;;8.80;6.10;;;;;;;1.56;59.39;101500.86;107930;1257;76786;-65
2024/03/07 09:02:58;;;;;;;8.70;5.20;;;;;;;1.55;59.35;101502.02;108070;1257;74960;-65
2024/03/07 09:05:29;;;;;;;8.20;5.70;;;;;;;1.57;59.41;101504.73;107920;1257;71838;-65
2024/03/07 09:07:58;;;;;;;7.90;5.70;;;;;;;1.62;59.39;101503.80;108060;1257;61656;-66
2024/03/07 09:10:29;;;;;;;8.60;5.80;;;;;;;1.68;59.26;101501.38;108116;1256;62356;-65
2024/03/07 09:12:58;;;;;;;9.10;6.30;;;;;;;1.69;58.96;101502.20;108009;1256;76872;-63
2024/03/07 09:15:27;;;;;;;9.00;6.10;;;;;;;1.68;58.86;101504.52;108021;1257;74648;-65
2024/03/07 09:17:56;;;;;;;11.00;6.10;;;;;;;1.65;58.82;101500.66;108019;1257;72098;-65
2024/03/07 09:20:24;;;;;;;7.50;5.40;;;;;;;1.62;58.84;101503.33;108134;1257;61380;-66
2024/03/07 09:22:54;;;;;;;8.10;5.90;;;;;;;1.63;58.83;101505.81;107994;1257;62764;-64
2024/03/07 09:25:24;;;;;;;7.50;5.70;;;;;;;1.65;58.81;101501.39;108024;1257;73128;-64
2024/03/07 09:27:54;;;;;;;7.40;5.20;;;;;;;1.66;58.72;101504.81;108093;1257;73159;-65
2024/03/07 09:30:25;;;;;;;8.80;6.20;;;;;;;1.66;58.90;101506.71;108091;1256;73708;-65
2024/03/07 09:32:55;;;;;;;9.20;6.30;;;;;;;1.62;59.00;101502.07;108004;1256;61461;-64
2024/03/07 09:35:23;;;;;;;8.40;5.40;;;;;;;1.58;59.36;101505.32;108164;1256;62985;-66
2024/03/07 09:37:53;;;;;;;9.30;5.90;;;;;;;1.61;59.80;101503.95;108110;1256;73458;-66
2024/03/07 09:40:25;;;;;;;8.60;6.00;;;;;;;1.66;59.74;101504.45;108038;1257;74973;-66
2024/03/07 09:42:56;;;;;;;8.60;5.70;;;;;;;1.67;59.57;101506.41;107999;1257;75007;-66
2024/03/07 09:45:29;;;;;;;6.90;5.20;;;;;;;1.64;59.82;101504.95;107630;1257;59230;-66
2024/03/07 09:47:57;;;;;;;8.20;6.00;;;;;;;1.68;60.02;101509.35;108014;1257;61225;-66
2024/03/07 09:50:27;;;;;;;9.20;6.30;;;;;;;1.72;59.87;101506.27;108098;1256;75124;-66
2024/03/07 09:52:55;;;;;;;10.70;6.70;;;;;;;1.72;59.57;101504.27;107830;1257;75033;-65
2024/03/07 09:55:26;;;;;;;9.20;6.40;;;;;;;1.71;59.69;101503.69;108283;1257;71584;-66
2024/03/07 09:57:55;;;;;;;12.10;5.90;;;;;;;1.70;59.89;101500.06;108054;1260;61417;-65
2024/03/07 10:00:29;;;;;;;9.80;6.10;;;;;;;1.70;59.86;101501.52;107922;1256;60408;-67
2024/03/07 10:03:08;;;;;;;8.30;5.70;;;;;;;1.71;59.62;101499.34;107941;1257;74975;-66
2024/03/07 10:05:37;;;;;;;8.20;5.40;;;;;;;1.76;59.84;101495.43;108041;1257;72074;-66
2024/03/07 10:08:07;;;;;;;7.80;5.80;;;;;;;1.81;60.10;101494.42;107834;1260;72800;-66
2024/03/07 10:10:35;;;;;;;8.80;5.50;;;;;;;1.90;59.96;101497.48;108062;1256;61398;-66
2024/03/07 10:13:05;;;;;;;8.70;6.20;;;;;;;1.96;59.94;101497.32;107926;1256;61125;-66
2024/03/07 10:15:34;;;;;;;9.50;6.40;;;;;;;2.02;59.66;101496.11;108048;1257;75036;-66
2024/03/07 10:18:06;;;;;;;8.40;6.00;;;;;;;2.04;59.42;101491.65;107950;1257;74937;-66
2024/03/07 10:20:35;;;;;;;8.90;6.30;;;;;;;2.01;59.61;101495.14;107764;1257;74831;-68
2024/03/07 10:23:03;;;;;;;9.00;6.50;;;;;;;1.96;59.35;101494.29;108015;1257;61451;-66
2024/03/07 10:25:32;;;;;;;9.90;6.50;;;;;;;1.95;59.42;101496.83;107991;1258;61234;-66
2024/03/07 10:28:03;;;;;;;10.10;6.30;;;;;;;1.93;59.32;101493.71;108104;1257;73525;-66
2024/03/07 10:30:39;;;;;;;9.50;7.00;;;;;;;1.95;59.70;101493.73;108152;1258;75019;-65
2024/03/07 10:33:07;;;;;;;11.70;7.30;;;;;;;1.96;59.44;101488.64;108007;1256;74950;-66
2024/03/07 10:35:36;;;;;;;10.00;6.50;;;;;;;1.96;59.63;101491.23;108020;1257;59856;-65
2024/03/07 10:38:07;;;;;;;10.40;7.00;;;;;;;1.97;59.76;101490.15;107899;1257;62199;-65
2024/03/07 10:40:40;;;;;;;11.30;7.10;;;;;;;1.98;59.72;101487.39;107839;1257;76878;-65
2024/03/07 10:43:10;;;;;;;9.90;6.60;;;;;;;1.99;59.59;101485.86;108031;1257;73652;-66
2024/03/07 10:45:46;;;;;;;11.40;7.50;;;;;;;2.00;59.67;101485.06;108035;1257;74993;-66
2024/03/07 10:48:19;;;;;;;9.70;6.90;;;;;;;2.02;59.53;101483.44;107977;1257;61211;-65
2024/03/07 10:51:13;;;;;;;9.30;6.90;;;;;;;2.02;59.48;101485.83;107978;1256;61982;-65
2024/03/07 10:53:59;;;;;;;9.40;6.40;;;;;;;1.99;59.52;101486.09;107932;1256;73664;-66
2024/03/07 10:56:49;;;;;;;10.10;7.40;;;;;;;1.99;59.75;101482.05;108005;1257;73601;-67
2024/03/07 10:59:22;;;;;;;11.00;7.50;;;;;;;1.98;59.64;101484.09;107926;1259;74857;-66
2024/03/07 11:01:59;;;;;;;11.80;8.60;;;;;;;1.94;59.50;101488.20;108020;1257;61248;-66
2024/03/07 11:04:29;;;;;;;13.10;9.10;;;;;;;1.93;59.78;101489.08;107895;1257;62269;-66
2024/03/07 11:06:58;;;;;;;10.30;7.10;;;;;;;1.96;59.96;101493.23;108006;1257;75142;-65
2024/03/07 11:09:32;;;;;;;11.40;7.60;;;;;;;2.03;60.16;101486.33;108081;1256;74997;-66
2024/03/07 11:12:03;;;;;;;10.00;6.60;;;;;;;2.09;59.91;101486.33;107616;1257;71489;-67
2024/03/07 11:14:31;;;;;;;11.50;7.70;;;;;;;2.10;60.02;101481.38;107931;1257;61532;-66
2024/03/07 11:17:00;;;;;;;10.60;7.30;;;;;;;2.14;60.17;101483.66;107848;1257;61082;-65
2024/03/07 11:19:31;;;;;;;10.50;7.40;;;;;;;2.15;60.08;101483.36;107995;1257;76874;-66
2024/03/07 11:21:59;;;;;;;11.80;7.70;;;;;;;2.16;60.39;101483.93;108147;1259;75046;-65
2024/03/07 11:24:29;;;;;;;11.50;7.60;;;;;;;2.16;60.14;101482.16;108015;1255;72552;-65
2024/03/07 11:26:57;;;;;;;12.40;7.80;;;;;;;2.12;59.83;101482.98;108033;1257;61526;-65
2024/03/07 11:29:52;;;;;;;9.60;6.80;;;;;;;2.08;59.67;101481.30;107942;1257;61128;-67
2024/03/07 11:32:22;;;;;;;11.70;7.60;;;;;;;2.06;59.88;101480.80;108014;1256;76796;-64
2024/03/07 11:34:55;;;;;;;11.30;7.70;;;;;;;2.03;59.95;101478.15;107957;1257;72948;-66
2024/03/07 11:37:49;;;;;;;11.20;7.70;;;;;;;2.01;59.94;101478.47;107991;1259;72592;-66